首页
METAR-TAF:

METAR-TAF

机场 :

Hurlburt Field

Mary Esther, 佛罗里达州, 美国

纬度: 30-25N, 经度: 086-41W, 海拔: 12米

当前天气观测

该预报发布于15分钟前的16:56 UTC
风速3节,风向东转东北
温度 14°C
湿度 58%
气压 1025 hPa
能見度: 16.1公里
少量云层高于35000英尺

METAR: KHRT 121656Z 07003KT 10SM FEW350 14/06 A3027 RMK AO2A SLP252 T01390058 $

时间: 11:11 (17:11 UTC)

预报

该预报发布于8小时和11分钟前的09:00 UTC
预报有效从12日的 09点(UTC)到 13日的 15点(UTC)
风速6节,风向北转西北
能见度10公里或以上
天空无云
成为
从 12日的 13点(UTC)到 12日的 14点(UTC)
风速9节,风向东转东南
能见度10公里或以上
少量云层高于2500英尺
散云层高于25000英尺
成为
从 12日的 17点(UTC)到 12日的 18点(UTC)
风速9节,风向东南
能见度10公里或以上
散云层高于2500英尺
散云层高于25000英尺
成为
从 12日的 00点(UTC)到 13日的 01点(UTC)
风速9节,风向南转南东
能见度10公里或以上
多云层高于2500英尺
多云层高于25000英尺
成为
从 13日的 06点(UTC)到 13日的 07点(UTC)
风速12节,风向
能见度10公里或以上
多云层高于2000英尺
多云层高于5000英尺
多云层高于20000英尺

TAF: KHRT 120900Z 1209/1315 34006KT 9999 SKC QNH3030INS BECMG 1213/1214 12009KT 9999 FEW025 SCT250 QNH3025INS BECMG 1217/1218 14009KT 9999 SCT025 SCT250 QNH3019INS BECMG 1200/1301 16009KT 9999 BKN025 BKN250 QNH3012INS BECMG 1306/1307 19012KT 9999 BKN020 BKN050 BKN200 QNH3001INS TX16/1218Z TN00/1211Z

超过4000个机场的气象观测和天气预报(METAR&TAF报告)。

可查询的气象台以黄色和红色小点在地图上表示。

将鼠标移到小点上方,可查看气象台名称。

然后点击查看天气观测和预报。

如需切换地图:点击带黑十字的绿色按钮放大地图;点击带横线的绿色按钮缩小地图;或者点击绿色箭头查看邻近地区的地图。


METAR-TAF: